createdAt,value
2022-08-17T00:01:27.231Z,18.80
2022-08-17T00:03:54.899Z,18.80
2022-08-17T00:06:24.656Z,18.80
2022-08-17T00:08:57.675Z,18.80
2022-08-17T00:11:34.172Z,18.60
2022-08-17T00:14:08.938Z,18.50
2022-08-17T00:16:50.370Z,18.40
2022-08-17T00:19:25.496Z,18.30
2022-08-17T00:22:31.670Z,18.40
2022-08-17T00:24:40.923Z,18.40
2022-08-17T00:27:07.645Z,18.50
2022-08-17T00:29:34.235Z,18.40
2022-08-17T00:32:02.051Z,18.40
2022-08-17T00:34:48.657Z,18.40
2022-08-17T00:37:15.304Z,18.30
2022-08-17T00:39:41.991Z,18.20
2022-08-17T00:42:17.389Z,18.10
2022-08-17T00:44:44.664Z,18.10
2022-08-17T00:47:11.302Z,18.10
2022-08-17T00:49:37.989Z,18.20
2022-08-17T00:52:12.081Z,18.20
2022-08-17T00:54:42.528Z,18.20
2022-08-17T00:57:22.955Z,18.10
2022-08-17T01:00:03.052Z,18.10
2022-08-17T01:02:34.958Z,18.00
2022-08-17T01:05:14.970Z,17.90
2022-08-17T01:07:42.876Z,18.00
2022-08-17T01:10:58.881Z,18.00
2022-08-17T01:12:58.033Z,18.00
2022-08-17T01:15:25.013Z,18.00
2022-08-17T01:17:51.796Z,18.00
2022-08-17T01:20:18.489Z,17.80
2022-08-17T01:22:45.179Z,17.70
2022-08-17T01:25:12.442Z,17.60
2022-08-17T01:27:39.150Z,17.60
2022-08-17T01:30:58.042Z,17.50
2022-08-17T01:32:56.311Z,17.40
2022-08-17T01:35:22.945Z,17.40
2022-08-17T01:37:49.718Z,17.30
2022-08-17T01:40:25.622Z,17.40
2022-08-17T01:42:58.378Z,17.50
2022-08-17T01:45:29.566Z,17.40
2022-08-17T01:47:56.568Z,17.50
2022-08-17T01:50:30.638Z,17.40
2022-08-17T01:53:02.742Z,17.40
2022-08-17T01:55:33.516Z,17.20
2022-08-17T01:58:00.167Z,17.10
2022-08-17T02:00:59.772Z,17.20
2022-08-17T02:03:15.404Z,17.20
2022-08-17T02:05:42.072Z,17.20
2022-08-17T02:08:08.695Z,17.20
2022-08-17T02:10:48.331Z,17.30
2022-08-17T02:13:15.508Z,17.20
2022-08-17T02:15:42.684Z,17.20
2022-08-17T02:18:10.104Z,17.10
2022-08-17T02:20:42.228Z,17.20
2022-08-17T02:23:11.161Z,17.20
2022-08-17T02:25:39.725Z,17.20
2022-08-17T02:28:06.386Z,17.20
2022-08-17T02:30:59.349Z,17.10
2022-08-17T02:33:19.957Z,17.00
2022-08-17T02:35:47.590Z,16.90
2022-08-17T02:38:14.624Z,17.00
2022-08-17T02:40:41.511Z,17.00
2022-08-17T02:43:08.530Z,17.00
2022-08-17T02:45:35.634Z,17.00
2022-08-17T02:48:02.704Z,17.00
2022-08-17T02:50:29.875Z,17.00
2022-08-17T02:53:01.432Z,17.10
2022-08-17T02:55:37.319Z,17.10
2022-08-17T02:58:04.694Z,16.90
2022-08-17T03:00:36.682Z,16.80
2022-08-17T03:03:05.665Z,16.70
2022-08-17T03:05:34.399Z,16.70
2022-08-17T03:08:01.309Z,16.80
2022-08-17T03:10:28.662Z,16.80
2022-08-17T03:12:55.432Z,16.90
2022-08-17T03:15:24.939Z,16.80
2022-08-17T03:17:52.634Z,16.80
2022-08-17T03:20:20.521Z,16.90
2022-08-17T03:22:53.263Z,16.90
2022-08-17T03:25:49.226Z,16.80
2022-08-17T03:28:20.506Z,16.80
2022-08-17T03:30:47.278Z,16.90
2022-08-17T03:33:14.031Z,16.80
2022-08-17T03:35:41.163Z,16.80
2022-08-17T03:38:09.550Z,16.80
2022-08-17T03:40:57.101Z,16.80
2022-08-17T03:43:23.888Z,16.80
2022-08-17T03:45:51.002Z,16.80
2022-08-17T03:48:20.547Z,16.70
2022-08-17T03:50:47.190Z,16.70
2022-08-17T03:53:17.474Z,16.80
2022-08-17T03:55:44.088Z,16.80
2022-08-17T03:58:10.817Z,16.80
2022-08-17T04:00:39.823Z,16.80
2022-08-17T04:03:06.608Z,16.80
2022-08-17T04:05:35.763Z,16.80
2022-08-17T04:08:02.533Z,16.80
2022-08-17T04:10:33.911Z,16.80
2022-08-17T04:13:00.687Z,16.70
2022-08-17T04:15:28.006Z,16.60
2022-08-17T04:17:55.508Z,16.50
2022-08-17T04:20:24.181Z,16.60
2022-08-17T04:23:00.071Z,16.50
2022-08-17T04:25:28.118Z,16.50
2022-08-17T04:27:56.048Z,16.40
2022-08-17T04:30:23.130Z,16.50
2022-08-17T04:33:03.746Z,16.40
2022-08-17T04:35:38.245Z,16.40
2022-08-17T04:38:06.023Z,16.40
2022-08-17T04:40:32.751Z,16.50
2022-08-17T04:43:10.785Z,16.50
2022-08-17T04:45:55.422Z,16.40
2022-08-17T04:48:36.168Z,16.30
2022-08-17T04:51:17.052Z,16.40
2022-08-17T04:53:49.068Z,16.50
2022-08-17T04:56:22.119Z,16.50
2022-08-17T04:58:52.696Z,16.60
2022-08-17T05:01:24.110Z,16.60
2022-08-17T05:03:53.038Z,16.70
2022-08-17T05:06:19.992Z,16.70
2022-08-17T05:08:46.683Z,16.60
2022-08-17T05:11:13.422Z,16.40
2022-08-17T05:13:40.037Z,16.40
2022-08-17T05:16:06.857Z,16.50
2022-08-17T05:18:33.484Z,16.60
2022-08-17T05:21:00.133Z,16.70
2022-08-17T05:23:32.009Z,16.90
2022-08-17T05:26:09.486Z,17.10
2022-08-17T05:28:39.679Z,17.20
2022-08-17T05:31:06.486Z,17.30
2022-08-17T05:33:35.854Z,17.30
2022-08-17T05:36:06.144Z,17.50
2022-08-17T05:38:32.871Z,17.60
2022-08-17T05:41:02.681Z,17.50
2022-08-17T05:43:32.078Z,17.60
2022-08-17T05:46:12.134Z,17.70
2022-08-17T05:48:51.479Z,17.80
2022-08-17T05:51:25.781Z,18.10
2022-08-17T05:54:19.786Z,18.20
2022-08-17T05:57:23.732Z,18.30
2022-08-17T05:59:58.825Z,18.40
2022-08-17T06:02:28.146Z,18.50
2022-08-17T06:05:19.744Z,18.60
2022-08-17T06:07:55.284Z,18.80
2022-08-17T06:10:50.083Z,19.00
2022-08-17T06:13:37.605Z,19.00
2022-08-17T06:16:34.158Z,19.20
2022-08-17T06:19:28.361Z,19.30
2022-08-17T06:21:55.719Z,19.50
2022-08-17T06:24:48.267Z,19.60
2022-08-17T06:27:46.099Z,19.70
2022-08-17T06:30:21.016Z,19.80
2022-08-17T06:32:50.273Z,19.90
2022-08-17T06:35:30.010Z,20.00
2022-08-17T06:38:06.848Z,20.00
2022-08-17T06:40:55.093Z,20.20
2022-08-17T06:43:33.803Z,20.50
2022-08-17T06:46:07.846Z,20.60
2022-08-17T06:48:52.293Z,20.80
2022-08-17T06:51:29.659Z,20.80
2022-08-17T06:54:05.917Z,20.90
2022-08-17T06:56:53.443Z,21.00
2022-08-17T06:59:55.141Z,21.10
2022-08-17T07:02:52.075Z,21.10
2022-08-17T07:05:24.319Z,21.20
2022-08-17T07:08:06.981Z,21.30
2022-08-17T07:10:55.169Z,21.50
2022-08-17T07:13:33.635Z,21.50
2022-08-17T07:16:30.754Z,21.70
2022-08-17T07:18:58.109Z,21.80
2022-08-17T07:21:45.414Z,21.80
2022-08-17T07:24:50.084Z,21.90
2022-08-17T07:27:16.697Z,21.90
2022-08-17T07:30:11.266Z,22.10
2022-08-17T07:32:49.083Z,22.20
2022-08-17T07:35:40.723Z,22.30
2022-08-17T07:38:24.988Z,22.50
2022-08-17T07:40:56.259Z,22.60
2022-08-17T07:43:37.722Z,22.60
2022-08-17T07:46:12.866Z,22.60
2022-08-17T07:48:41.626Z,22.70
2022-08-17T07:51:35.254Z,22.80
2022-08-17T07:54:23.411Z,22.90
2022-08-17T07:56:59.013Z,23.00
2022-08-17T07:59:32.623Z,23.20
2022-08-17T08:02:02.484Z,23.40
2022-08-17T08:07:38.384Z,23.60
2022-08-17T08:10:29.118Z,23.70
2022-08-17T08:13:07.389Z,23.90
2022-08-17T08:15:45.197Z,24.20
2022-08-17T08:18:55.852Z,24.50
2022-08-17T08:21:40.837Z,24.70
2022-08-17T08:24:44.650Z,24.90
2022-08-17T08:27:25.696Z,25.20
2022-08-17T08:30:18.217Z,25.30
2022-08-17T08:32:59.668Z,25.50
2022-08-17T08:35:39.620Z,25.70
2022-08-17T08:38:34.153Z,25.80
2022-08-17T08:41:21.195Z,26.00
2022-08-17T08:44:22.163Z,26.20
2022-08-17T08:47:29.140Z,26.30
2022-08-17T08:50:37.485Z,26.40
2022-08-17T08:53:21.564Z,26.70
2022-08-17T08:56:20.245Z,26.80
2022-08-17T08:59:04.542Z,26.80
2022-08-17T09:02:06.862Z,26.90
2022-08-17T09:05:13.507Z,27.00
2022-08-17T09:07:57.690Z,27.30
2022-08-17T09:10:52.977Z,27.40
2022-08-17T09:13:28.477Z,27.60
2022-08-17T09:16:05.006Z,27.50
2022-08-17T09:19:02.934Z,27.70
2022-08-17T09:21:34.922Z,27.80
2022-08-17T09:24:11.305Z,27.90
2022-08-17T09:26:48.426Z,28.10
2022-08-17T09:29:16.877Z,28.20
2022-08-17T09:31:55.394Z,28.20
2022-08-17T09:34:36.724Z,28.30
2022-08-17T09:37:38.117Z,28.50
2022-08-17T09:40:10.723Z,28.40
2022-08-17T09:42:47.032Z,28.40
2022-08-17T09:45:31.698Z,28.50
2022-08-17T09:48:13.127Z,28.60
2022-08-17T09:51:03.336Z,28.50
2022-08-17T09:53:31.971Z,28.70
2022-08-17T09:56:01.772Z,28.70
2022-08-17T09:58:42.634Z,28.80
2022-08-17T10:01:32.931Z,29.10
2022-08-17T10:04:10.954Z,29.10
2022-08-17T10:07:10.232Z,29.20
2022-08-17T10:10:04.692Z,29.40
2022-08-17T10:12:53.187Z,29.50
2022-08-17T10:15:38.522Z,29.80
2022-08-17T10:18:33.778Z,29.90
2022-08-17T10:21:12.945Z,29.80
2022-08-17T10:23:40.576Z,29.90
2022-08-17T10:26:14.889Z,29.90
2022-08-17T10:29:00.780Z,30.10
2022-08-17T10:31:38.051Z,30.40
2022-08-17T10:34:22.756Z,30.40
2022-08-17T10:36:53.975Z,30.60
2022-08-17T10:39:52.657Z,30.50
2022-08-17T10:42:32.619Z,30.30
2022-08-17T10:45:07.019Z,30.20
2022-08-17T10:47:57.340Z,30.30
2022-08-17T10:50:48.780Z,30.20
2022-08-17T10:53:33.405Z,30.00
2022-08-17T10:56:12.134Z,29.90
2022-08-17T10:58:56.934Z,29.90
2022-08-17T11:01:32.877Z,29.90
2022-08-17T11:04:28.704Z,29.90
2022-08-17T11:07:13.554Z,29.90
2022-08-17T11:09:55.151Z,29.90
2022-08-17T11:12:39.902Z,29.80
2022-08-17T11:15:18.138Z,29.90
2022-08-17T11:18:11.696Z,30.10
2022-08-17T11:21:02.753Z,30.20
2022-08-17T11:23:59.523Z,30.50
2022-08-17T11:26:32.234Z,30.70
2022-08-17T11:29:08.215Z,31.00
2022-08-17T11:31:57.516Z,31.20
2022-08-17T11:34:27.064Z,31.40
2022-08-17T11:37:27.966Z,31.40
2022-08-17T11:40:18.844Z,31.70
2022-08-17T11:43:13.260Z,31.80
2022-08-17T11:45:56.681Z,31.70
2022-08-17T11:48:36.349Z,31.70
2022-08-17T11:51:15.492Z,31.50
2022-08-17T11:53:42.048Z,31.70
2022-08-17T11:56:30.023Z,31.60
2022-08-17T11:58:56.787Z,31.60
2022-08-17T12:01:23.337Z,31.70
2022-08-17T12:03:55.966Z,31.80
2022-08-17T12:06:34.967Z,31.60
2022-08-17T12:09:09.072Z,31.60
2022-08-17T12:11:56.277Z,31.40
2022-08-17T12:15:08.953Z,31.10
2022-08-17T12:17:40.356Z,31.30
2022-08-17T12:20:14.827Z,31.40
2022-08-17T12:22:52.491Z,31.40
2022-08-17T12:25:33.878Z,31.50
2022-08-17T12:28:06.430Z,31.60
2022-08-17T12:30:34.886Z,31.70
2022-08-17T12:33:01.543Z,31.60
2022-08-17T12:35:36.936Z,31.60
2022-08-17T12:38:06.420Z,31.70
2022-08-17T12:40:57.974Z,32.00
2022-08-17T12:43:27.749Z,32.20
2022-08-17T12:46:00.315Z,32.00
2022-08-17T12:48:29.700Z,31.90
2022-08-17T12:51:02.334Z,31.80
2022-08-17T12:53:32.391Z,31.50
2022-08-17T12:56:00.648Z,31.30
2022-08-17T12:58:45.321Z,31.20
2022-08-17T13:01:17.165Z,31.20
2022-08-17T13:03:50.644Z,31.10
2022-08-17T13:06:32.562Z,31.40
2022-08-17T13:09:15.413Z,31.70
2022-08-17T13:11:54.468Z,31.70
2022-08-17T13:14:21.668Z,31.60
2022-08-17T13:17:01.461Z,31.50
2022-08-17T13:19:40.991Z,31.50
2022-08-17T13:22:11.824Z,31.40
2022-08-17T13:24:48.557Z,31.20
2022-08-17T13:27:15.186Z,31.10
2022-08-17T13:29:44.551Z,31.30
2022-08-17T13:32:13.026Z,31.30
2022-08-17T13:35:08.319Z,31.30
2022-08-17T13:37:34.197Z,31.30
2022-08-17T13:40:06.769Z,31.40
2022-08-17T13:42:51.700Z,31.50
2022-08-17T13:45:35.327Z,31.50
2022-08-17T13:48:13.777Z,31.80
2022-08-17T13:50:54.481Z,32.00
2022-08-17T13:53:41.299Z,32.00
2022-08-17T13:56:31.793Z,32.00
2022-08-17T13:59:14.620Z,32.10
2022-08-17T14:01:53.761Z,32.10
2022-08-17T14:04:24.957Z,32.10
2022-08-17T14:06:54.583Z,32.10
2022-08-17T14:09:26.747Z,32.20
2022-08-17T14:11:54.763Z,32.30
2022-08-17T14:14:21.935Z,32.50
2022-08-17T14:16:49.278Z,32.40
2022-08-17T14:19:15.994Z,32.20
2022-08-17T14:21:45.335Z,32.20
2022-08-17T14:24:44.679Z,32.40
2022-08-17T14:27:12.128Z,32.10
2022-08-17T14:29:38.898Z,31.80
2022-08-17T14:32:23.544Z,31.70
2022-08-17T14:34:51.256Z,31.90
2022-08-17T14:37:21.515Z,31.90
2022-08-17T14:39:48.188Z,31.80
2022-08-17T14:42:14.899Z,31.70
2022-08-17T14:44:41.518Z,31.60
2022-08-17T14:47:08.593Z,31.60
2022-08-17T14:49:35.179Z,31.60
2022-08-17T14:52:02.224Z,31.60
2022-08-17T14:54:28.925Z,31.80
2022-08-17T14:57:23.135Z,31.60
2022-08-17T14:59:47.328Z,31.70
2022-08-17T15:02:17.288Z,31.70
2022-08-17T15:04:45.745Z,31.70
2022-08-17T15:07:12.505Z,31.80
2022-08-17T15:09:39.174Z,31.80
2022-08-17T15:12:06.846Z,31.90
2022-08-17T15:14:34.964Z,31.90
2022-08-17T15:17:03.163Z,31.80
2022-08-17T15:19:29.796Z,31.80
2022-08-17T15:21:56.429Z,31.80
2022-08-17T15:24:23.160Z,31.80
2022-08-17T15:26:49.788Z,31.60
2022-08-17T15:29:16.384Z,31.60
2022-08-17T15:31:43.555Z,31.40
2022-08-17T15:34:10.150Z,31.40
2022-08-17T15:36:36.795Z,31.30
2022-08-17T15:39:03.506Z,31.20
2022-08-17T15:41:30.467Z,31.10
2022-08-17T15:43:58.135Z,31.20
2022-08-17T15:46:25.988Z,31.10
2022-08-17T15:48:56.124Z,31.10
2022-08-17T15:51:28.865Z,31.00
2022-08-17T15:54:19.046Z,30.90
2022-08-17T15:56:49.249Z,30.90
2022-08-17T15:59:15.836Z,30.90
2022-08-17T16:03:01.201Z,30.80
2022-08-17T16:04:30.744Z,30.80
2022-08-17T16:06:58.385Z,30.70
2022-08-17T16:09:25.042Z,30.70
2022-08-17T16:11:51.939Z,30.70
2022-08-17T16:14:22.115Z,30.60
2022-08-17T16:16:49.757Z,30.60
2022-08-17T16:19:16.351Z,30.50
2022-08-17T16:21:43.395Z,30.50
2022-08-17T16:24:12.823Z,30.40
2022-08-17T16:26:40.450Z,30.40
2022-08-17T16:29:07.519Z,30.40
2022-08-17T16:31:34.871Z,30.40
2022-08-17T16:34:17.115Z,30.30
2022-08-17T16:36:53.748Z,30.30
2022-08-17T16:39:24.479Z,30.30
2022-08-17T16:41:51.095Z,30.30
2022-08-17T16:44:20.193Z,30.30
2022-08-17T16:46:48.241Z,30.20
2022-08-17T16:49:29.662Z,30.20
2022-08-17T16:52:02.416Z,30.20
2022-08-17T16:54:29.059Z,30.10
2022-08-17T16:56:55.655Z,30.10
2022-08-17T16:59:30.429Z,30.00
2022-08-17T17:01:58.383Z,29.90
2022-08-17T17:04:25.252Z,29.80
2022-08-17T17:07:06.912Z,29.80
2022-08-17T17:09:37.882Z,29.70
2022-08-17T17:12:12.106Z,29.70
2022-08-17T17:14:43.656Z,29.60
2022-08-17T17:17:24.595Z,29.50
2022-08-17T17:20:10.090Z,29.50
2022-08-17T17:23:18.132Z,29.40
2022-08-17T17:26:28.015Z,29.20
2022-08-17T17:29:19.730Z,29.20
2022-08-17T17:32:21.716Z,29.10
2022-08-17T17:34:54.256Z,28.80
2022-08-17T17:37:27.241Z,28.70
2022-08-17T17:39:59.707Z,28.80
2022-08-17T17:42:29.624Z,28.70
2022-08-17T17:45:30.649Z,28.60
2022-08-17T17:47:57.358Z,28.50
2022-08-17T17:50:34.450Z,28.30
2022-08-17T17:53:26.117Z,28.30
2022-08-17T17:56:40.332Z,28.20
2022-08-17T17:59:13.390Z,28.10
2022-08-17T18:02:03.404Z,28.10
2022-08-17T18:04:55.279Z,28.10
2022-08-17T18:07:37.185Z,27.90
2022-08-17T18:10:32.795Z,27.90
2022-08-17T18:13:26.634Z,27.80
2022-08-17T18:15:54.375Z,27.70
2022-08-17T18:18:32.411Z,27.70
2022-08-17T18:21:14.083Z,27.70
2022-08-17T18:23:47.422Z,27.60
2022-08-17T18:26:33.469Z,27.60
2022-08-17T18:29:02.169Z,27.60
2022-08-17T18:31:28.986Z,27.60
2022-08-17T18:34:45.808Z,27.50
2022-08-17T18:37:10.363Z,27.50
2022-08-17T18:39:37.245Z,27.40
2022-08-17T18:42:06.486Z,27.30
2022-08-17T18:44:39.726Z,27.20
2022-08-17T18:47:06.318Z,27.20
2022-08-17T18:49:34.456Z,27.20
2022-08-17T18:52:15.441Z,27.10
2022-08-17T18:55:07.952Z,27.10
2022-08-17T18:57:45.635Z,27.10
2022-08-17T19:00:40.557Z,27.10
2022-08-17T19:03:16.153Z,27.00
2022-08-17T19:06:14.659Z,26.90
2022-08-17T19:08:41.302Z,27.00
2022-08-17T19:11:15.520Z,26.90
2022-08-17T19:13:46.932Z,26.80
2022-08-17T19:16:43.038Z,26.90
2022-08-17T19:19:13.204Z,26.80
2022-08-17T19:21:44.555Z,26.70
2022-08-17T19:24:16.566Z,26.60
2022-08-17T19:26:54.572Z,26.70
2022-08-17T19:29:45.016Z,26.60
2022-08-17T19:32:18.037Z,26.60
2022-08-17T19:34:44.806Z,26.60
2022-08-17T19:37:21.899Z,26.70
2022-08-17T19:40:01.404Z,26.60
2022-08-17T19:42:50.269Z,26.50
2022-08-17T19:45:28.631Z,26.50
2022-08-17T19:48:20.527Z,26.40
2022-08-17T19:51:01.764Z,26.40
2022-08-17T19:54:07.286Z,26.40
2022-08-17T19:56:55.293Z,26.50
2022-08-17T20:00:01.399Z,26.50
2022-08-17T20:03:06.455Z,26.50
2022-08-17T20:06:09.127Z,26.40
2022-08-17T20:08:57.308Z,26.50
2022-08-17T20:11:55.358Z,26.40
2022-08-17T20:14:40.824Z,26.30
2022-08-17T20:17:21.177Z,26.30
2022-08-17T20:20:19.884Z,26.20
2022-08-17T20:23:01.484Z,26.20
2022-08-17T20:26:02.698Z,26.20
2022-08-17T20:28:32.495Z,26.20
2022-08-17T20:30:59.131Z,26.30
2022-08-17T20:33:36.974Z,26.30
2022-08-17T20:36:23.136Z,26.30
2022-08-17T20:38:54.574Z,26.10
2022-08-17T20:41:30.545Z,26.10
2022-08-17T20:43:57.112Z,26.00
2022-08-17T20:46:41.560Z,26.00
2022-08-17T20:49:11.276Z,25.90
2022-08-17T20:52:02.521Z,25.90
2022-08-17T20:54:44.398Z,25.90
2022-08-17T20:57:32.951Z,25.80
2022-08-17T21:00:10.801Z,25.60
2022-08-17T21:02:37.451Z,25.40
2022-08-17T21:05:37.078Z,25.30
2022-08-17T21:08:16.450Z,24.70
2022-08-17T21:10:45.886Z,24.20
2022-08-17T21:13:12.473Z,24.00
2022-08-17T21:15:56.892Z,24.00
2022-08-17T21:18:54.771Z,23.80
2022-08-17T21:21:46.598Z,23.80
2022-08-17T21:24:41.024Z,23.60
2022-08-17T21:27:26.821Z,23.80
2022-08-17T21:30:14.075Z,23.50
2022-08-17T21:32:43.948Z,23.40
2022-08-17T21:35:19.695Z,23.30
2022-08-17T21:37:50.191Z,23.20
2022-08-17T21:40:26.595Z,22.80
2022-08-17T21:42:56.726Z,22.70
2022-08-17T21:45:32.998Z,22.50
2022-08-17T21:48:15.633Z,22.50
2022-08-17T21:50:56.717Z,22.60
2022-08-17T21:53:32.842Z,22.50
2022-08-17T21:56:00.117Z,22.20
2022-08-17T21:58:35.267Z,22.10
2022-08-17T22:01:25.762Z,22.10
2022-08-17T22:04:05.355Z,21.80
2022-08-17T22:06:42.384Z,21.70
2022-08-17T22:09:31.448Z,21.70
2022-08-17T22:12:05.579Z,21.50
2022-08-17T22:14:52.821Z,21.30
2022-08-17T22:17:38.555Z,20.90
2022-08-17T22:20:13.216Z,20.60
2022-08-17T22:22:59.757Z,20.90
2022-08-17T22:25:27.967Z,21.00
2022-08-17T22:28:04.658Z,21.00
2022-08-17T22:30:43.326Z,20.90
2022-08-17T22:33:28.708Z,20.70
2022-08-17T22:36:20.323Z,20.70
2022-08-17T22:38:49.911Z,20.70
2022-08-17T22:41:30.406Z,20.80
2022-08-17T22:43:59.120Z,20.90
2022-08-17T22:46:25.924Z,20.70
2022-08-17T22:48:58.911Z,20.80
2022-08-17T22:51:30.802Z,20.60
2022-08-17T22:54:10.913Z,20.50
2022-08-17T22:56:38.082Z,20.50
2022-08-17T22:59:05.588Z,20.50
2022-08-17T23:01:33.270Z,20.50
2022-08-17T23:04:27.406Z,20.30
2022-08-17T23:06:54.039Z,20.40
2022-08-17T23:09:20.979Z,20.40
2022-08-17T23:11:50.558Z,20.50
2022-08-17T23:14:19.289Z,20.40
2022-08-17T23:16:46.988Z,20.40
2022-08-17T23:19:17.416Z,20.50
2022-08-17T23:21:44.837Z,20.30
2022-08-17T23:24:22.348Z,20.10
2022-08-17T23:26:49.585Z,20.10
2022-08-17T23:29:16.302Z,20.00
2022-08-17T23:31:43.053Z,20.10
2022-08-17T23:34:12.889Z,19.70
2022-08-17T23:36:39.608Z,19.60
2022-08-17T23:39:07.030Z,19.40
2022-08-17T23:41:37.839Z,19.50
2022-08-17T23:44:05.613Z,19.70
2022-08-17T23:46:32.347Z,19.70
2022-08-17T23:48:59.000Z,19.70
2022-08-17T23:51:28.950Z,19.60
2022-08-17T23:54:11.641Z,19.50
2022-08-17T23:56:39.114Z,19.50
2022-08-17T23:59:05.704Z,19.50
